Nearby METAR Reports

 

GCLP - Las Palmas/Gando, Spain
Distance from station: NE 26km
Updated: 25/05/2020 19:30
Few Clouds
Few Clouds
 Wind from NNE
Wind: NNE 28 km/h
Temperature: 23°C
Dew Point: 18°C
Humidity: 74%
Barometer: 1016 hPa
Clouds: Few Clouds
Visibility: 10 km
Cloud details: Few Clouds 762 m
2020/05/25 19:30 GCLP 251930Z 02015KT 9999 FEW025 23/18 Q1016 NOSIG
GCTS - Tenerife Sur/Rei, Spain
Distance from station: WNW 102km
Updated: 25/05/2020 19:30
Clear
Clear
 Wind from E
Wind: E 15 km/h
Temperature: 23°C
Dew Point: 18°C
Humidity: 74%
Barometer: 1017 hPa
Summary: Clear
Visibility: greater than 10 km
2020/05/25 19:30 GCTS 251930Z 09008KT CAVOK 23/18 Q1017 NOSIG
 
GCXO - Tenerife/Los Rod, Spain
Distance from station: NW 110km
Updated: 25/05/2020 19:30
Clear
Clear
 Wind from W
Wind: W 7 km/h
Temperature: 26°C
Dew Point: 16°C
Humidity: 54%
Barometer: 1020 hPa
Summary: Clear
Visibility: greater than 10 km
2020/05/25 19:30 GCXO 251930Z 27004KT CAVOK 26/16 Q1020 NOSIG
GCGM - La Gomera Arpt, Spain
Distance from station: W 164km
Updated: 25/05/2020 19:30
Clear
Clear
 Wind from SW
Wind: SW 9 km/h
Temperature: 21°C
Dew Point: 19°C
Humidity: 88%
Barometer: 1018 hPa
Summary: Clear
Visibility: greater than 10 km
2020/05/25 19:30 GCGM 251930Z AUTO 23005KT 190V250 CAVOK 21/19 Q1018 RMK R09/22004KT 170V310 ARP/24004KT 180V270
 
GCFV - Fuerteventura Ar, Spain
Distance from station: ENE 183km
Updated: 25/05/2020 19:30
Clear
Clear
 Wind from NNE
Wind: NNE 11 km/h
Temperature: 23°C
Dew Point: 20°C
Humidity: 83%
Barometer: 1016 hPa
Summary: Clear
Visibility: greater than 10 km
2020/05/25 19:30 GCFV 251930Z 03006KT CAVOK 23/20 Q1016
GCHI - Hierro Airport, Spain
Distance from station: W 226km
Updated: 25/05/2020 19:30
Overcast
Overcast
 Wind from N
Wind: N 33 km/h
Temperature: 21°C
Dew Point: 18°C
Humidity: 83%
Barometer: 1017 hPa
Clouds: Overcast
Visibility: 10 km
Cloud details: Overcast 274 m
2020/05/25 19:30 GCHI 251930Z AUTO 35018KT 9999 OVC009 21/18 Q1017
 
GCLA - La Palma Airport, Spain
Distance from station: WNW 233km
Updated: 25/05/2020 19:30
Few Clouds
Few Clouds
 Wind from NNE
Wind: NNE 20 km/h
Temperature: 21°C
Dew Point: 18°C
Humidity: 83%
Barometer: 1018 hPa
Clouds: Few Clouds
Visibility: 10 km
Cloud details: Few Clouds 701 m
2020/05/25 19:30 GCLA 251930Z 02011KT 9999 FEW023 21/18 Q1018
GCRR - Arrecife/Lanzaro, Spain
Distance from station: NE 234km
Updated: 25/05/2020 19:30
Clear
Clear
 Wind from varies
Wind: varies 6 km/h
Temperature: 23°C
Dew Point: 20°C
Humidity: 83%
Barometer: 1016 hPa
Summary: Clear
Visibility: greater than 10 km
2020/05/25 19:30 GCRR 251930Z VRB03KT CAVOK 23/20 Q1016
 
LPMA - Funchal/Madeira, Portugal
Distance from station: NNW 556km
Updated: 25/05/2020 19:30
Few Clouds
Few Clouds
 Wind from NNE
Wind: NNE 26 km/h
Temperature: 27°C
Dew Point: 6°C
Humidity: 26%
Barometer: 1020 hPa
Clouds: Few Clouds
Visibility: 10 km
Cloud details: Few Clouds 427 m
2020/05/25 19:30 LPMA 251930Z 03014KT 9999 FEW014 27/06 Q1020
LPPS - Porto Santo Isla, Portugal
Distance from station: N 594km
Updated: 25/05/2020 19:30
Few Clouds
Few Clouds
 Wind from varies
Wind: varies 13 km/h
Temperature: 21°C
Dew Point: 15°C
Humidity: 69%
Barometer: 1021 hPa
Clouds: Few Clouds
Visibility: 10 km
Cloud details: Few Clouds 427 m
2020/05/25 19:30 LPPS 251930Z VRB07KT 9999 FEW014 21/15 Q1021